Time;durP1;ratioP1;P1;durP2;ratioP2;P2;SDS_P1;SDS_P2;PMS_P1;PMS_P2;Temp;Humidity;BMP_temperature;BMP_pressure;BME280_temperature;BME280_humidity;BME280_pressure;Samples;Min_cycle;Max_cycle;Signal;HPM_P1;HPM_P2
2024/03/13 05:07:24;;;;;;;7.90;7.60;;;8.90;41.70;;;;;;5072076;28;20495;-79
2024/03/13 05:09:54;;;;;;;7.90;7.70;;;9.00;41.20;;;;;;5068957;28;20433;-78
2024/03/13 05:12:20;;;;;;;7.40;7.20;;;9.00;41.10;;;;;;5076889;28;20587;-79
2024/03/13 05:14:46;;;;;;;14.03;13.33;;;9.20;40.40;;;;;;5067741;28;20438;-79
2024/03/13 05:17:15;;;;;;;7.83;7.53;;;9.30;40.10;;;;;;5055287;28;20663;-79
2024/03/13 05:19:43;;;;;;;7.83;7.63;;;9.50;40.10;;;;;;5072231;28;20728;-79
2024/03/13 05:22:09;;;;;;;8.00;7.70;;;9.40;39.30;;;;;;5073057;28;20500;-79
2024/03/13 05:24:35;;;;;;;8.83;8.33;;;9.50;39.70;;;;;;5076321;28;20524;-79
2024/03/13 05:27:00;;;;;;;8.23;7.83;;;9.60;39.80;;;;;;5073051;28;20476;-79
2024/03/13 05:29:27;;;;;;;8.40;8.10;;;9.60;39.50;;;;;;5070028;28;20470;-79
2024/03/13 05:31:54;;;;;;;21.60;20.20;;;9.60;38.00;;;;;;5078744;28;20199;-80
2024/03/13 05:34:19;;;;;;;8.93;8.57;;;9.70;39.20;;;;;;5059967;28;20551;-79
2024/03/13 05:36:45;;;;;;;9.27;8.87;;;9.80;38.80;;;;;;5079099;28;20469;-80
2024/03/13 05:39:12;;;;;;;8.80;8.50;;;9.80;38.60;;;;;;5078507;28;20266;-80
2024/03/13 05:42:03;;;;;;;8.53;8.23;;;9.90;38.50;;;;;;5069251;28;20440;-80
2024/03/13 05:44:29;;;;;;;8.30;8.00;;;10.00;37.20;;;;;;5060338;28;20426;-80
2024/03/13 05:46:56;;;;;;;8.93;8.63;;;10.10;36.60;;;;;;5078793;28;20525;-80
2024/03/13 05:49:21;;;;;;;9.23;8.93;;;10.10;36.60;;;;;;5060845;28;20188;-80
2024/03/13 05:51:55;;;;;;;8.70;8.40;;;10.10;36.10;;;;;;5063862;28;20482;-80
2024/03/13 05:54:20;;;;;;;8.90;8.60;;;10.00;36.80;;;;;;5073851;28;20948;-80
2024/03/13 05:56:50;;;;;;;8.33;7.93;;;10.00;37.10;;;;;;5063902;28;20434;-80
2024/03/13 05:59:18;;;;;;;8.50;8.20;;;10.10;38.40;;;;;;5056486;28;20200;-80
2024/03/13 06:01:43;;;;;;;8.20;7.90;;;10.20;38.70;;;;;;5068434;28;20433;-80
2024/03/13 06:04:09;;;;;;;9.20;8.90;;;10.10;37.70;;;;;;5078645;28;20508;-80
2024/03/13 06:06:34;;;;;;;9.40;9.00;;;10.10;37.50;;;;;;5062355;28;20212;-80
2024/03/13 06:09:00;;;;;;;9.27;8.97;;;10.10;37.40;;;;;;5080434;28;20187;-80
2024/03/13 06:11:27;;;;;;;9.50;9.10;;;10.00;37.40;;;;;;5080202;28;20225;-80
2024/03/13 06:13:53;;;;;;;8.97;8.67;;;9.90;39.00;;;;;;5080011;28;20421;-80
2024/03/13 06:16:22;;;;;;;9.27;8.87;;;9.90;38.80;;;;;;5071249;28;20443;-79
2024/03/13 06:18:48;;;;;;;9.83;9.33;;;9.90;39.70;;;;;;5067584;28;20415;-80
2024/03/13 06:21:13;;;;;;;13.53;12.83;;;9.90;38.90;;;;;;5059903;28;20472;-80
2024/03/13 06:23:47;;;;;;;9.47;9.13;;;9.90;38.90;;;;;;5064732;28;20191;-81
2024/03/13 06:26:18;;;;;;;9.30;8.90;;;10.10;37.70;;;;;;5078457;28;20207;-79
2024/03/13 06:31:34;;;;;;;10.60;10.20;;;10.00;37.60;;;;;;5076105;28;21050;-80
2024/03/13 06:33:59;;;;;;;9.80;9.40;;;10.00;37.70;;;;;;5061471;28;20430;-80
2024/03/13 06:36:25;;;;;;;10.50;10.10;;;10.10;37.20;;;;;;5082499;28;20441;-80
2024/03/13 06:38:50;;;;;;;10.20;9.70;;;10.00;36.60;;;;;;5077585;28;20266;-80
2024/03/13 06:41:16;;;;;;;9.50;9.10;;;9.90;38.50;;;;;;5078128;28;20253;-80
2024/03/13 06:43:43;;;;;;;10.23;9.83;;;10.00;37.80;;;;;;5076165;28;20194;-80
2024/03/13 06:46:09;;;;;;;9.20;8.90;;;10.10;36.90;;;;;;5078882;28;20203;-80
2024/03/13 06:48:35;;;;;;;10.57;10.17;;;10.20;37.40;;;;;;5061121;28;20434;-81
2024/03/13 06:51:08;;;;;;;10.43;9.93;;;10.20;37.50;;;;;;5066011;28;20796;-79
2024/03/13 06:53:34;;;;;;;10.43;10.03;;;10.20;36.80;;;;;;5062354;28;20434;-79
2024/03/13 06:56:00;;;;;;;9.20;8.90;;;10.20;36.40;;;;;;5077451;28;20441;-80
2024/03/13 06:58:27;;;;;;;9.80;9.50;;;10.10;36.60;;;;;;5085919;28;20792;-80
2024/03/13 07:00:53;;;;;;;11.13;10.73;;;10.10;37.00;;;;;;5075670;28;20199;-79
2024/03/13 07:03:18;;;;;;;9.10;8.80;;;10.10;37.30;;;;;;5093545;28;20420;-80
2024/03/13 07:05:44;;;;;;;9.90;9.60;;;10.00;37.10;;;;;;5089370;28;20821;-79
2024/03/13 07:08:19;;;;;;;9.90;9.50;;;9.90;38.70;;;;;;5090481;28;20179;-79
2024/03/13 07:11:01;;;;;;;9.67;9.37;;;9.80;38.60;;;;;;5073926;28;20282;-80
2024/03/13 07:13:26;;;;;;;10.03;9.63;;;9.90;39.30;;;;;;5081218;28;20422;-82
2024/03/13 07:15:55;;;;;;;10.40;10.00;;;10.00;38.00;;;;;;5088008;28;20540;-81
2024/03/13 07:18:21;;;;;;;10.23;9.73;;;9.80;39.20;;;;;;5074510;28;20267;-80
2024/03/13 07:20:47;;;;;;;12.00;11.40;;;9.80;39.90;;;;;;5075719;28;20899;-80
2024/03/13 07:23:13;;;;;;;9.60;9.10;;;9.90;39.50;;;;;;5076967;28;20459;-82
2024/03/13 07:25:46;;;;;;;9.50;9.10;;;9.90;39.20;;;;;;5090165;28;20617;-79
2024/03/13 07:28:11;;;;;;;10.10;9.70;;;9.70;40.00;;;;;;5092109;28;20796;-81
2024/03/13 07:30:38;;;;;;;10.47;10.07;;;9.70;40.70;;;;;;5082522;28;20437;-79
2024/03/13 07:33:08;;;;;;;10.37;10.00;;;9.80;41.00;;;;;;5089099;28;20619;-80
2024/03/13 07:35:36;;;;;;;10.80;10.40;;;9.80;41.10;;;;;;5079409;28;20459;-79
2024/03/13 07:38:03;;;;;;;10.83;10.37;;;9.90;41.30;;;;;;5089685;28;20421;-80
2024/03/13 07:40:31;;;;;;;10.47;10.07;;;9.80;42.50;;;;;;5048124;28;20431;-80
2024/03/13 07:42:57;;;;;;;10.87;10.37;;;9.70;42.30;;;;;;5095602;28;20435;-80
2024/03/13 07:45:25;;;;;;;9.97;9.57;;;9.60;42.20;;;;;;5072156;28;20527;-80
2024/03/13 07:47:51;;;;;;;8.20;7.90;;;9.60;43.00;;;;;;5082262;28;20191;-81
2024/03/13 07:50:16;;;;;;;9.93;9.27;;;9.80;43.70;;;;;;5072854;28;20491;-79
2024/03/13 07:52:42;;;;;;;8.87;8.53;;;9.90;42.50;;;;;;5079797;28;20248;-80
2024/03/13 07:55:09;;;;;;;9.57;9.17;;;9.90;41.90;;;;;;5075926;28;20187;-80
2024/03/13 07:57:35;;;;;;;9.33;8.97;;;9.90;41.50;;;;;;5089465;28;20179;-80
2024/03/13 08:00:00;;;;;;;10.87;10.27;;;10.10;41.70;;;;;;5070227;28;20435;-80
2024/03/13 08:02:27;;;;;;;10.50;10.10;;;10.20;41.00;;;;;;5079243;28;20197;-80
2024/03/13 08:05:05;;;;;;;9.57;9.17;;;10.10;40.60;;;;;;5082635;28;20192;-81
2024/03/13 08:07:32;;;;;;;9.93;9.53;;;10.00;41.20;;;;;;5069061;28;20460;-81
2024/03/13 08:09:57;;;;;;;11.43;10.93;;;9.90;41.90;;;;;;5089535;28;20417;-80
2024/03/13 08:12:24;;;;;;;10.70;10.20;;;9.80;42.40;;;;;;5088177;28;20573;-80
2024/03/13 08:14:50;;;;;;;9.30;8.90;;;9.80;42.40;;;;;;5060826;28;20182;-80
2024/03/13 08:17:15;;;;;;;10.07;9.67;;;9.90;42.50;;;;;;5061087;28;20455;-80
2024/03/13 08:19:42;;;;;;;10.33;9.83;;;9.80;42.40;;;;;;5084815;28;20174;-81
2024/03/13 08:22:08;;;;;;;10.50;9.77;;;9.80;42.40;;;;;;5083475;28;20179;-80
2024/03/13 08:24:33;;;;;;;10.20;9.70;;;9.90;42.80;;;;;;5070842;28;20956;-80
2024/03/13 08:26:59;;;;;;;9.47;9.17;;;9.80;42.60;;;;;;5069147;28;20210;-80
2024/03/13 08:29:25;;;;;;;11.73;11.20;;;9.80;43.40;;;;;;5074020;28;20187;-80
2024/03/13 08:31:50;;;;;;;9.87;9.47;;;9.90;44.30;;;;;;5080665;28;20287;-80
2024/03/13 08:34:22;;;;;;;10.37;9.97;;;9.80;44.60;;;;;;5072302;28;20446;-79
2024/03/13 08:36:49;;;;;;;9.50;9.10;;;9.90;45.00;;;;;;5078848;28;20704;-79
2024/03/13 08:39:16;;;;;;;10.50;10.10;;;9.80;45.10;;;;;;5078822;28;20440;-79
2024/03/13 08:41:43;;;;;;;9.77;9.37;;;9.70;45.10;;;;;;5077812;28;20436;-79
2024/03/13 08:44:09;;;;;;;10.40;9.90;;;9.70;46.90;;;;;;5075807;28;20496;-79
2024/03/13 08:46:35;;;;;;;9.60;9.20;;;9.70;48.00;;;;;;5077911;28;20943;-79
2024/03/13 08:49:05;;;;;;;10.40;9.90;;;9.80;48.00;;;;;;5082958;28;20426;-80
2024/03/13 08:51:31;;;;;;;10.20;9.70;;;9.90;48.10;;;;;;5059000;28;20301;-80
2024/03/13 08:54:11;;;;;;;10.47;9.87;;;9.90;47.70;;;;;;5063837;28;20438;-80
2024/03/13 08:56:42;;;;;;;9.60;9.20;;;10.10;47.10;;;;;;5080091;28;20433;-80
2024/03/13 08:59:07;;;;;;;9.50;9.00;;;10.10;46.80;;;;;;5059274;28;20462;-80
2024/03/13 09:01:41;;;;;;;8.80;8.40;;;10.20;46.80;;;;;;5053350;28;20523;-81
2024/03/13 09:04:08;;;;;;;9.43;8.87;;;10.30;47.10;;;;;;5058500;28;20194;-80
2024/03/13 09:06:41;;;;;;;10.33;9.83;;;10.30;47.40;;;;;;5052508;28;20462;-79
2024/03/13 09:09:07;;;;;;;8.10;7.60;;;10.20;47.70;;;;;;5069387;28;20441;-81
2024/03/13 09:11:35;;;;;;;8.10;7.80;;;10.20;48.20;;;;;;5066626;28;20461;-81
2024/03/13 09:14:03;;;;;;;8.00;7.60;;;10.30;48.20;;;;;;5058397;28;20203;-82
2024/03/13 09:16:37;;;;;;;8.30;7.90;;;10.40;48.40;;;;;;5052200;28;20442;-81
2024/03/13 09:19:03;;;;;;;8.10;7.80;;;10.40;49.40;;;;;;5061306;28;20481;-80
2024/03/13 09:21:29;;;;;;;7.50;7.20;;;10.40;48.80;;;;;;5053898;28;20487;-81
2024/03/13 09:23:57;;;;;;;7.93;7.63;;;10.50;48.90;;;;;;5061629;28;20422;-82
2024/03/13 09:26:23;;;;;;;7.67;7.37;;;10.60;48.90;;;;;;5062257;28;20203;-81
2024/03/13 09:28:48;;;;;;;8.07;7.77;;;10.70;48.90;;;;;;5056676;28;20433;-81
2024/03/13 09:31:14;;;;;;;7.50;7.30;;;10.70;48.80;;;;;;5059524;28;20678;-80
2024/03/13 09:33:40;;;;;;;7.23;6.93;;;10.80;48.70;;;;;;5037447;28;20214;-81
2024/03/13 09:36:08;;;;;;;7.83;7.53;;;10.90;49.20;;;;;;5059318;28;20815;-82
2024/03/13 09:38:33;;;;;;;8.40;8.00;;;11.00;48.80;;;;;;5078883;28;20603;-80
2024/03/13 09:41:05;;;;;;;7.53;7.33;;;11.20;48.80;;;;;;5080835;28;20438;-80
2024/03/13 09:43:36;;;;;;;7.00;6.80;;;11.30;48.50;;;;;;5055383;28;20195;-79
2024/03/13 09:46:03;;;;;;;6.93;6.73;;;11.20;47.60;;;;;;5059962;28;20462;-80
2024/03/13 09:48:31;;;;;;;7.90;7.50;;;11.10;48.10;;;;;;5060179;28;20434;-81
2024/03/13 09:50:58;;;;;;;6.73;6.43;;;11.10;48.80;;;;;;5060203;28;20524;-81
2024/03/13 09:53:28;;;;;;;6.30;6.10;;;11.10;48.90;;;;;;5068848;28;20865;-81
2024/03/13 09:55:53;;;;;;;6.90;6.60;;;11.10;49.10;;;;;;5057726;28;20455;-79
2024/03/13 09:58:21;;;;;;;7.57;7.27;;;11.20;49.40;;;;;;5073939;28;20429;-81
2024/03/13 10:00:46;;;;;;;6.63;6.43;;;11.40;49.40;;;;;;5055567;28;20210;-80
2024/03/13 10:03:23;;;;;;;6.67;6.47;;;11.40;48.70;;;;;;5065317;28;20443;-80
2024/03/13 10:05:59;;;;;;;6.60;6.20;;;11.50;48.70;;;;;;5053345;28;20223;-80
2024/03/13 10:08:27;;;;;;;6.37;6.07;;;11.60;48.70;;;;;;5056012;28;20448;-80
2024/03/13 10:10:55;;;;;;;6.40;6.20;;;11.60;48.20;;;;;;5053887;28;20516;-80
2024/03/13 10:13:21;;;;;;;7.37;6.97;;;11.60;48.00;;;;;;5056764;28;20476;-80
2024/03/13 10:15:48;;;;;;;6.57;6.13;;;11.70;47.60;;;;;;5053987;28;20503;-80
2024/03/13 10:18:17;;;;;;;6.60;6.20;;;11.60;47.50;;;;;;5058258;28;20499;-81
2024/03/13 10:21:08;;;;;;;6.73;6.53;;;11.70;48.00;;;;;;5053090;28;20422;-80
2024/03/13 10:23:38;;;;;;;7.17;6.77;;;11.80;47.20;;;;;;5053192;28;20473;-82
2024/03/13 10:26:07;;;;;;;6.00;5.80;;;11.90;46.70;;;;;;5078327;28;20869;-80
2024/03/13 10:28:38;;;;;;;5.80;5.60;;;11.90;46.20;;;;;;5054331;28;20434;-81
2024/03/13 10:31:13;;;;;;;7.00;6.80;;;12.00;46.10;;;;;;5046353;28;20446;-80
2024/03/13 10:33:39;;;;;;;6.83;6.57;;;12.00;45.70;;;;;;5072691;28;20459;-80
2024/03/13 10:36:06;;;;;;;6.83;6.63;;;12.00;44.60;;;;;;5075686;28;20457;-80
2024/03/13 10:38:34;;;;;;;7.00;6.47;;;12.00;44.90;;;;;;5057975;28;20495;-81
2024/03/13 10:41:01;;;;;;;6.13;5.90;;;12.10;45.70;;;;;;5062401;28;20433;-80
2024/03/13 10:43:33;;;;;;;6.90;6.60;;;12.10;45.20;;;;;;5079043;28;20919;-80
2024/03/13 10:45:58;;;;;;;6.80;6.60;;;12.10;45.60;;;;;;5055185;28;20477;-80
2024/03/13 10:48:24;;;;;;;6.67;6.30;;;12.20;46.00;;;;;;5070504;28;20412;-80
2024/03/13 10:50:50;;;;;;;7.13;6.83;;;12.20;46.10;;;;;;5076104;28;20210;-80
2024/03/13 10:53:19;;;;;;;8.00;7.60;;;12.30;46.20;;;;;;5081459;28;20207;-80
2024/03/13 10:55:46;;;;;;;7.77;7.37;;;12.20;46.10;;;;;;5068553;28;20499;-80
2024/03/13 10:58:33;;;;;;;7.40;7.10;;;12.20;47.00;;;;;;5071151;28;20854;-81
2024/03/13 11:00:59;;;;;;;7.70;7.40;;;12.30;46.80;;;;;;5071443;28;20444;-81
2024/03/13 11:03:26;;;;;;;7.67;7.00;;;12.30;46.70;;;;;;5068305;28;20929;-81
2024/03/13 11:06:25;;;;;;;6.70;6.50;;;12.30;47.10;;;;;;5101343;22;20654;-82
2024/03/13 12:51:36;;;;;;;7.23;7.03;;;13.60;45.80;;;;;;5026133;28;21025;-80
2024/03/13 12:54:29;;;;;;;7.10;6.87;;;13.50;46.00;;;;;;5020880;28;20415;-80
2024/03/13 12:57:01;;;;;;;8.10;7.73;;;13.60;46.20;;;;;;5025737;28;20440;-81
2024/03/13 13:00:00;;;;;;;7.17;6.97;;;13.60;45.00;;;;;;5026993;28;20438;-80
2024/03/13 13:02:30;;;;;;;8.10;7.90;;;13.50;44.70;;;;;;5020901;28;20517;-81
2024/03/13 13:04:57;;;;;;;7.13;6.93;;;13.50;44.50;;;;;;5034351;28;20419;-80
2024/03/13 13:07:24;;;;;;;7.23;6.93;;;13.50;44.70;;;;;;5034082;28;20781;-81
2024/03/13 13:09:50;;;;;;;7.27;7.07;;;13.50;44.70;;;;;;5034157;28;20427;-81
2024/03/13 13:12:20;;;;;;;8.50;8.20;;;13.50;44.70;;;;;;5033906;28;20566;-81
2024/03/13 13:14:52;;;;;;;7.80;7.50;;;13.50;44.70;;;;;;5018953;28;20431;-82
2024/03/13 13:17:20;;;;;;;8.17;7.87;;;13.50;45.20;;;;;;5021861;28;20473;-81
2024/03/13 13:19:46;;;;;;;7.70;7.40;;;13.50;44.70;;;;;;5038086;28;20479;-82
2024/03/13 13:22:12;;;;;;;8.07;7.77;;;13.50;44.80;;;;;;5038644;28;20448;-81
2024/03/13 13:24:37;;;;;;;8.30;8.00;;;13.60;45.40;;;;;;5039080;28;20173;-80
2024/03/13 13:27:05;;;;;;;8.50;8.20;;;13.50;45.20;;;;;;5039544;28;20237;-80
2024/03/13 13:29:32;;;;;;;8.70;8.30;;;13.60;44.80;;;;;;5042370;28;20157;-81
2024/03/13 13:31:59;;;;;;;8.23;8.03;;;13.60;44.80;;;;;;5042821;28;20973;-80
2024/03/13 13:34:31;;;;;;;7.80;7.50;;;13.60;44.80;;;;;;5040612;28;20424;-81
2024/03/13 13:36:56;;;;;;;9.13;8.80;;;13.60;44.80;;;;;;5037998;28;20541;-81
2024/03/13 13:39:22;;;;;;;8.20;8.00;;;13.60;44.80;;;;;;5037371;28;20958;-80
2024/03/13 13:41:48;;;;;;;9.07;8.67;;;13.60;44.80;;;;;;5038245;28;20173;-80
2024/03/13 13:44:14;;;;;;;8.77;8.50;;;13.60;45.10;;;;;;5038424;28;20441;-81
2024/03/13 13:46:40;;;;;;;8.20;7.87;;;13.70;45.10;;;;;;5036521;28;20526;-81
2024/03/13 13:49:08;;;;;;;7.40;7.03;;;13.70;44.80;;;;;;5038780;28;20271;-83
2024/03/13 13:51:34;;;;;;;7.80;7.60;;;13.70;44.80;;;;;;5038356;28;20230;-80
2024/03/13 13:54:00;;;;;;;7.67;7.37;;;13.60;44.20;;;;;;5025770;28;20421;-82
2024/03/13 13:56:25;;;;;;;7.50;7.20;;;13.50;44.70;;;;;;5018166;28;21010;-81
2024/03/13 13:58:52;;;;;;;8.00;7.70;;;13.50;42.90;;;;;;5014139;28;20200;-83
2024/03/13 14:01:19;;;;;;;7.40;7.20;;;13.50;42.80;;;;;;5015448;28;20200;-82
2024/03/13 14:03:46;;;;;;;7.10;6.90;;;13.50;43.10;;;;;;5018829;28;20431;-82
2024/03/13 14:06:48;;;;;;;7.10;6.90;;;13.60;43.20;;;;;;4997216;28;20451;-84
2024/03/13 14:10:06;;;;;;;7.67;7.43;;;13.60;43.20;;;;;;5018781;28;20762;-83
2024/03/13 14:12:50;;;;;;;7.40;7.20;;;13.60;43.60;;;;;;5020099;28;20533;-82
2024/03/13 14:15:25;;;;;;;7.63;7.43;;;13.60;44.80;;;;;;5022150;28;20444;-84
2024/03/13 14:18:01;;;;;;;7.40;7.10;;;13.60;43.90;;;;;;5025796;28;20420;-82
2024/03/13 14:20:36;;;;;;;7.00;6.80;;;13.60;43.60;;;;;;5027123;28;20471;-82
2024/03/13 14:23:35;;;;;;;7.97;7.57;;;13.60;43.50;;;;;;5024596;28;20507;-81
2024/03/13 14:26:16;;;;;;;8.43;7.93;;;13.60;42.80;;;;;;5025002;28;20440;-82
2024/03/13 14:29:24;;;;;;;;;;;;;;;;;;;;;
2024/03/13 14:31:58;;;;;;;8.60;8.30;;;13.60;42.20;;;;;;4982085;28;20556;-82
2024/03/13 14:34:31;;;;;;;7.90;7.60;;;13.60;41.70;;;;;;5007667;28;20428;-82
2024/03/13 14:37:23;;;;;;;8.13;7.87;;;13.70;41.10;;;;;;5024408;28;20449;-82
2024/03/13 14:39:56;;;;;;;7.33;7.13;;;13.70;40.70;;;;;;5008405;28;20420;-82
2024/03/13 14:42:31;;;;;;;7.90;7.57;;;13.70;40.10;;;;;;5021614;28;20421;-82
2024/03/13 14:44:59;;;;;;;8.40;8.10;;;13.60;40.00;;;;;;5020833;28;20793;-82
2024/03/13 14:47:26;;;;;;;6.97;6.77;;;13.60;40.00;;;;;;5024665;28;20445;-82
2024/03/13 14:49:55;;;;;;;7.27;7.00;;;13.50;40.60;;;;;;4993951;28;20429;-82
2024/03/13 14:52:32;;;;;;;7.37;7.07;;;13.50;41.10;;;;;;5001253;28;20464;-82
2024/03/13 14:54:58;;;;;;;7.47;7.27;;;13.50;41.20;;;;;;5014614;28;20512;-82
2024/03/13 14:57:23;;;;;;;7.73;7.43;;;13.50;41.40;;;;;;5012974;28;20467;-80
2024/03/13 14:59:49;;;;;;;7.40;7.20;;;13.50;41.30;;;;;;4998443;28;20166;-82
2024/03/13 15:02:15;;;;;;;7.20;6.97;;;13.50;42.40;;;;;;4998479;28;20170;-81
2024/03/13 15:04:41;;;;;;;7.43;7.13;;;13.50;42.50;;;;;;4998069;28;20503;-83
2024/03/13 15:07:09;;;;;;;8.60;8.20;;;13.60;42.50;;;;;;4997732;28;20444;-82
2024/03/13 15:09:40;;;;;;;8.57;8.17;;;13.60;42.30;;;;;;4996384;28;20645;-82
2024/03/13 15:12:10;;;;;;;8.40;8.10;;;13.70;41.00;;;;;;5012528;28;20475;-81
2024/03/13 15:14:39;;;;;;;8.23;7.93;;;13.70;40.20;;;;;;4998423;28;20416;-83
2024/03/13 15:17:08;;;;;;;7.77;7.47;;;13.80;40.60;;;;;;5016714;28;21023;-81
2024/03/13 15:19:38;;;;;;;7.57;7.27;;;13.80;40.50;;;;;;5000962;28;20417;-80
2024/03/13 15:22:04;;;;;;;7.30;7.00;;;13.90;40.50;;;;;;5016176;28;20413;-80
2024/03/13 15:24:30;;;;;;;8.90;8.40;;;13.90;39.80;;;;;;5016351;28;21088;-80
2024/03/13 15:26:56;;;;;;;8.27;8.03;;;13.90;39.50;;;;;;5015805;28;20953;-81
2024/03/13 15:29:22;;;;;;;10.77;10.20;;;13.90;39.50;;;;;;5015663;28;20424;-80
2024/03/13 15:31:50;;;;;;;10.30;9.80;;;14.00;39.50;;;;;;4999220;28;20252;-81
2024/03/13 15:34:15;;;;;;;8.97;8.47;;;14.10;39.30;;;;;;5016089;28;20423;-81
2024/03/13 15:36:42;;;;;;;9.30;8.80;;;14.00;38.90;;;;;;5016812;28;20800;-81
2024/03/13 15:39:12;;;;;;;9.77;9.27;;;14.00;38.40;;;;;;5021250;28;20169;-81
2024/03/13 15:41:38;;;;;;;8.63;8.33;;;14.00;38.60;;;;;;5020358;28;20401;-81
2024/03/13 15:44:07;;;;;;;9.30;8.90;;;13.80;37.30;;;;;;5020141;28;20419;-81
2024/03/13 15:46:32;;;;;;;9.20;8.70;;;13.90;37.10;;;;;;5022287;28;20217;-81
2024/03/13 15:48:59;;;;;;;8.03;7.70;;;14.00;37.10;;;;;;5018650;28;20434;-82
2024/03/13 15:51:47;;;;;;;9.00;8.60;;;14.10;36.60;;;;;;5019623;28;20273;-83
2024/03/13 15:55:01;;;;;;;8.63;8.33;;;14.10;35.30;;;;;;5019677;28;20423;-83
2024/03/13 15:57:51;;;;;;;9.20;8.90;;;14.20;35.20;;;;;;5018863;28;20440;-83
2024/03/13 16:00:37;;;;;;;9.33;8.93;;;14.20;35.20;;;;;;5019406;28;20424;-83
2024/03/13 16:03:15;;;;;;;9.43;8.70;;;14.20;34.20;;;;;;5008422;28;20428;-84
2024/03/13 16:06:32;;;;;;;8.53;8.27;;;14.20;35.20;;;;;;4986426;28;20528;-83
2024/03/13 16:09:57;;;;;;;9.47;8.90;;;14.20;35.20;;;;;;5018353;28;20420;-83
2024/03/13 16:12:26;;;;;;;9.27;8.87;;;14.10;33.50;;;;;;5026693;28;20938;-81
2024/03/13 16:14:51;;;;;;;9.10;8.70;;;14.10;33.50;;;;;;5020346;28;20474;-82
2024/03/13 16:17:17;;;;;;;8.43;8.13;;;14.00;33.30;;;;;;5019314;28;20677;-81
2024/03/13 16:19:42;;;;;;;8.30;8.00;;;14.10;33.20;;;;;;5021366;28;20177;-82
2024/03/13 16:22:09;;;;;;;8.60;8.30;;;14.10;33.90;;;;;;5022219;28;20185;-82
2024/03/13 16:24:35;;;;;;;10.73;10.10;;;14.10;33.40;;;;;;5022260;28;20209;-82
2024/03/13 16:27:02;;;;;;;8.93;8.53;;;14.00;33.30;;;;;;5020782;28;20787;-83
2024/03/13 16:29:29;;;;;;;9.93;9.23;;;13.80;33.00;;;;;;5018699;28;20186;-82
2024/03/13 16:31:54;;;;;;;8.97;8.40;;;13.80;33.80;;;;;;5019676;28;20459;-82
2024/03/13 16:34:25;;;;;;;8.77;8.47;;;13.80;33.60;;;;;;5022174;28;20923;-84
2024/03/13 16:36:53;;;;;;;9.13;8.80;;;13.80;33.40;;;;;;5025110;28;20199;-82
2024/03/13 16:39:27;;;;;;;9.83;9.10;;;13.80;33.00;;;;;;5023917;28;20424;-83
2024/03/13 16:41:56;;;;;;;9.23;8.93;;;13.80;34.50;;;;;;5022145;28;20429;-83
2024/03/13 16:44:21;;;;;;;9.07;8.63;;;13.90;34.90;;;;;;5022088;28;20448;-82
2024/03/13 16:46:53;;;;;;;8.90;8.40;;;14.00;35.00;;;;;;5020440;28;20858;-83
2024/03/13 16:49:22;;;;;;;8.37;7.90;;;14.00;35.00;;;;;;5019406;28;20555;-83
2024/03/13 16:51:58;;;;;;;8.60;8.20;;;14.00;35.10;;;;;;5021145;28;20476;-83
2024/03/13 16:54:28;;;;;;;8.30;8.00;;;14.00;34.90;;;;;;5021398;28;20442;-83
2024/03/13 16:56:54;;;;;;;8.80;8.40;;;14.10;34.90;;;;;;5019560;28;20439;-83
2024/03/13 16:59:20;;;;;;;10.30;9.70;;;14.10;34.90;;;;;;5020229;28;20417;-83
2024/03/13 17:01:46;;;;;;;9.33;8.90;;;14.10;34.00;;;;;;5019690;28;20420;-83
2024/03/13 17:04:13;;;;;;;9.10;8.50;;;14.00;33.30;;;;;;5018653;28;20189;-83
2024/03/13 17:06:38;;;;;;;8.90;8.40;;;14.00;33.60;;;;;;5064891;22;20583;-79
2024/03/13 17:09:09;;;;;;;9.73;9.43;;;14.00;32.90;;;;;;5066712;28;20454;-81
2024/03/13 17:11:35;;;;;;;8.70;8.40;;;13.90;33.30;;;;;;5065480;28;20200;-81
2024/03/13 17:14:02;;;;;;;8.77;8.37;;;13.90;34.00;;;;;;5065345;28;20429;-80
2024/03/13 17:16:29;;;;;;;8.97;8.37;;;13.90;34.20;;;;;;5067450;28;20557;-78
2024/03/13 17:18:55;;;;;;;9.10;8.70;;;13.90;34.10;;;;;;5066495;28;20450;-80
2024/03/13 17:21:21;;;;;;;8.90;8.30;;;13.90;34.30;;;;;;5064879;28;20434;-80
2024/03/13 17:23:47;;;;;;;10.00;9.60;;;13.90;34.50;;;;;;5062867;28;20423;-80
2024/03/13 17:26:13;;;;;;;11.13;10.53;;;13.90;34.20;;;;;;5066169;28;20250;-78
2024/03/13 17:28:38;;;;;;;10.20;9.70;;;13.90;34.10;;;;;;5067770;28;20430;-78
2024/03/13 17:31:06;;;;;;;9.90;9.50;;;13.90;34.20;;;;;;5066693;28;20505;-80
2024/03/13 17:33:31;;;;;;;9.00;8.70;;;13.90;34.40;;;;;;5063492;28;20285;-80
2024/03/13 17:35:56;;;;;;;8.70;8.30;;;13.90;34.10;;;;;;5063822;28;20450;-80
2024/03/13 17:38:22;;;;;;;9.37;8.87;;;13.90;34.00;;;;;;5065834;28;20696;-80
2024/03/13 17:40:47;;;;;;;10.00;9.50;;;13.90;33.90;;;;;;5067980;28;20183;-79
2024/03/13 17:43:15;;;;;;;9.77;9.37;;;13.90;33.40;;;;;;5064951;28;20199;-81
2024/03/13 17:45:41;;;;;;;9.30;8.90;;;13.80;32.90;;;;;;5068330;28;20755;-81
2024/03/13 17:48:09;;;;;;;8.60;8.20;;;13.80;33.30;;;;;;5070267;28;20421;-80
2024/03/13 17:50:35;;;;;;;9.50;9.00;;;13.80;32.80;;;;;;5065575;28;20192;-79
2024/03/13 17:53:02;;;;;;;9.37;8.87;;;13.80;33.00;;;;;;5068060;28;20473;-78
2024/03/13 17:55:29;;;;;;;9.80;9.40;;;13.80;33.20;;;;;;5066897;28;20419;-80
2024/03/13 17:57:55;;;;;;;10.33;9.70;;;13.80;33.30;;;;;;5065801;28;20426;-79
2024/03/13 18:00:21;;;;;;;8.57;8.27;;;13.70;33.40;;;;;;5066308;28;20422;-79
2024/03/13 18:02:46;;;;;;;9.33;8.93;;;13.70;33.50;;;;;;5058726;28;20572;-79
2024/03/13 18:05:12;;;;;;;10.00;9.40;;;13.70;33.70;;;;;;5068839;28;20905;-79
2024/03/13 18:07:39;;;;;;;9.93;9.43;;;13.70;33.90;;;;;;5069878;28;20223;-79
2024/03/13 18:10:05;;;;;;;10.60;10.00;;;13.70;33.80;;;;;;5066684;28;20429;-79
2024/03/13 18:12:31;;;;;;;10.10;9.40;;;13.70;34.30;;;;;;5067040;28;20466;-78
2024/03/13 18:14:57;;;;;;;10.60;10.00;;;13.60;33.80;;;;;;5062192;28;20852;-79
2024/03/13 18:17:22;;;;;;;11.43;10.83;;;13.60;33.50;;;;;;5066354;28;20450;-80
2024/03/13 18:19:48;;;;;;;12.20;11.50;;;13.60;33.50;;;;;;5067018;28;20233;-80
2024/03/13 18:22:17;;;;;;;12.07;11.27;;;13.60;33.30;;;;;;5064690;28;20252;-79
2024/03/13 18:24:43;;;;;;;10.07;9.67;;;13.60;32.90;;;;;;5062320;28;20188;-78
2024/03/13 18:27:09;;;;;;;10.70;10.10;;;13.60;32.70;;;;;;5063267;28;20529;-79
2024/03/13 18:29:35;;;;;;;11.20;10.43;;;13.50;33.10;;;;;;5060556;28;20915;-80
2024/03/13 18:32:02;;;;;;;10.17;9.67;;;13.50;33.30;;;;;;5060274;28;20196;-80
2024/03/13 18:34:27;;;;;;;10.73;10.13;;;13.50;33.30;;;;;;5063924;28;20835;-78
2024/03/13 18:36:53;;;;;;;11.17;10.47;;;13.50;33.70;;;;;;5063476;28;20636;-79
2024/03/13 18:39:18;;;;;;;11.20;10.60;;;13.40;33.60;;;;;;5056686;28;20570;-80
2024/03/13 18:41:44;;;;;;;10.30;9.70;;;13.40;33.70;;;;;;5063071;28;20202;-78
2024/03/13 18:44:09;;;;;;;10.53;9.73;;;13.40;33.90;;;;;;5053915;28;20187;-78
2024/03/13 18:46:35;;;;;;;11.00;10.40;;;13.40;34.10;;;;;;5067931;28;20207;-78
2024/03/13 18:49:01;;;;;;;10.00;9.50;;;13.40;34.20;;;;;;5067546;28;20191;-78
2024/03/13 18:51:30;;;;;;;10.33;9.83;;;13.30;34.40;;;;;;5063270;28;20176;-77
2024/03/13 18:53:56;;;;;;;9.70;9.30;;;13.30;34.40;;;;;;5056625;28;20501;-78
2024/03/13 18:56:21;;;;;;;9.73;9.23;;;13.30;34.40;;;;;;5066841;28;20468;-77
2024/03/13 18:58:48;;;;;;;8.83;8.43;;;13.30;34.40;;;;;;5071367;28;20434;-79
2024/03/13 19:01:14;;;;;;;8.67;8.20;;;13.30;34.40;;;;;;5065732;28;20188;-77
2024/03/13 19:03:42;;;;;;;10.03;9.43;;;13.30;34.40;;;;;;5072286;28;20468;-78
2024/03/13 19:06:08;;;;;;;9.50;9.10;;;13.40;33.70;;;;;;5064638;28;20472;-78
2024/03/13 19:08:33;;;;;;;8.73;8.43;;;13.40;34.20;;;;;;5067484;28;20426;-78
2024/03/13 19:10:59;;;;;;;9.80;9.30;;;13.40;33.30;;;;;;5069405;28;20183;-79
2024/03/13 19:13:24;;;;;;;10.00;9.50;;;13.40;33.60;;;;;;5064212;28;20216;-79
2024/03/13 19:15:51;;;;;;;9.83;9.33;;;13.40;33.20;;;;;;5062664;28;20211;-78
2024/03/13 19:18:17;;;;;;;9.83;9.30;;;13.40;33.20;;;;;;5068246;28;20181;-79
2024/03/13 19:20:42;;;;;;;11.10;10.50;;;13.40;33.30;;;;;;5070337;28;20813;-78
2024/03/13 19:23:08;;;;;;;10.97;10.37;;;13.40;34.10;;;;;;5067972;28;20282;-78
2024/03/13 19:25:33;;;;;;;11.17;10.57;;;13.40;33.40;;;;;;5064571;28;20555;-81
2024/03/13 19:27:59;;;;;;;10.10;9.70;;;13.40;33.40;;;;;;5066118;28;20184;-80
2024/03/13 19:30:28;;;;;;;10.60;10.10;;;13.40;33.20;;;;;;5067364;28;20179;-78
2024/03/13 19:32:53;;;;;;;9.47;8.97;;;13.40;33.10;;;;;;5069083;28;20195;-78
2024/03/13 19:35:28;;;;;;;10.37;9.77;;;13.40;33.10;;;;;;5066318;28;20448;-78
2024/03/13 19:37:53;;;;;;;10.00;9.50;;;13.40;33.10;;;;;;5050943;28;20175;-77
2024/03/13 19:40:19;;;;;;;9.80;9.30;;;13.40;32.90;;;;;;5066771;28;20430;-78
2024/03/13 19:42:44;;;;;;;10.20;9.70;;;13.40;32.90;;;;;;5068784;28;20179;-77
2024/03/13 19:45:13;;;;;;;9.93;9.50;;;13.30;32.80;;;;;;5067839;28;20171;-78
2024/03/13 19:47:42;;;;;;;11.03;10.43;;;13.30;32.80;;;;;;5064085;28;20446;-80